METAR Data
IDs: Format: Raw Decoded Include TAF

Data at: 1716 UTC 21 Sep 2018

KINK 211653Z AUTO 34014KT 10SM FEW023 SCT035 26/19 A3004 RMK AO2 SLP131 T02560194
KINK 211553Z AUTO 35012KT 10SM FEW014 OVC045 23/20 A3003 RMK AO2 SLP129 T02280200
KINK 211520Z AUTO 35010KT 10SM FEW030 OVC044 22/20 A3001 RMK AO2 T02220200
KINK 211453Z AUTO 35009KT 10SM BKN028 BKN044 22/20 A3000 RMK AO2 SLP123 T02170200 53020
KINK 211353Z AUTO 32006KT 10SM BKN046 21/20 A2998 RMK AO2 SLP116 T02060200
KINK 211253Z AUTO 30005KT 6SM BR FEW045 19/19 A2996 RMK AO2 SLP109 T01940189 $
KINK 211208Z AUTO 32005KT 4SM BR SCT002 19/19 A2995 RMK AO2 T01940194 $
KINK 211153Z AUTO 30005KT 8SM CLR 19/19 A2994 RMK AO2 SLP097 70059 T01940194 10211 20194 53009 $
KINK 211053Z AUTO 30004KT 4SM BR SCT002 19/19 A2992 RMK AO2 SLP089 T01940194 $
KINK 211041Z AUTO 29004KT 3SM BR BKN002 19/19 A2991 RMK AO2 T01940194 $
KINK 211034Z AUTO 31004KT 1SM BR VV002 19/19 A2991 RMK AO2 T01940194 $
KINK 211025Z AUTO 32005KT 1/4SM FG VV002 19/19 A2991 RMK AO2 T01940194 $
KINK 211001Z AUTO 31005KT 3/4SM BR VV002 20/20 A2991 RMK AO2 T02000200 $
KINK 210953Z AUTO 32006KT 1SM BR OVC002 20/20 A2991 RMK AO2 SLP085 T02000200 $
KINK 210950Z AUTO 32005KT 1 3/4SM BR OVC002 20/20 A2991 RMK AO2 $
KINK 210938Z AUTO 29004KT 3/4SM BR VV002 20/20 A2991 RMK AO2 T02000200 $
KINK 210932Z AUTO 28004KT 2 1/2SM BR BKN003 20/20 A2991 RMK AO2 T02000200 $
KINK 210926Z AUTO 29006KT 9SM SCT003 19/19 A2991 RMK AO2 T01940194 $
KINK 210853Z AUTO 28003KT 10SM SCT011 20/19 A2991 RMK AO2 SLP087 T02000194 55003 $
KINK 210753Z AUTO 00000KT 10SM FEW100 21/20 A2991 RMK AO2 SLP086 T02060200 $
KINK 210653Z AUTO 24003KT 10SM SCT090 21/20 A2991 RMK AO2 SLP086 T02060200 $
KINK 210553Z AUTO 26004KT 10SM SCT005 OVC060 21/21 A2993 RMK AO2 SLP092 60059 T02110206 10272 20211 402940194 51007 $
KINK 210544Z AUTO 27005KT 10SM BKN005 OVC060 21/21 A2993 RMK AO2 T02110206 $
KINK 210536Z AUTO 28004KT 10SM SCT005 BKN060 21/21 A2993 RMK AO2 T02110211 $
KINK 210453Z AUTO 00000KT 10SM FEW120 21/21 A2992 RMK AO2 SLP094 T02110206 $
KINK 210353Z AUTO 12006KT 10SM OVC110 21/21 A2991 RMK AO2 SLP090 T02110211 $
KINK 210253Z AUTO 00000KT 10SM OVC110 22/20 A2990 RMK AO2 RAE08 SLP087 P0000 60059 T02170200 51022 $
KINK 210224Z AUTO 00000KT 10SM FEW008 OVC100 21/21 A2990 RMK AO2 RAE08 P0000 T02110206 $
KINK 210153Z AUTO 29005KT 9SM -RA BKN120 21/21 A2990 RMK AO2 TSE04 SLP087 P0018 T02110206 $
KINK 210110Z AUTO 23005KT 3SM +RA BR BKN042 BKN050 OVC065 21/21 A2988 RMK AO2 TSE04 P0009 T02110206 $
KINK 210058Z AUTO 19009KT 3SM +TSRA BR BKN033 BKN048 OVC060 21/21 A2988 RMK AO2 LTG DSNT SE P0003 T02110206 $
KINK 210053Z AUTO 21008KT 1 3/4SM +TSRA BR SCT025 BKN036 OVC049 21/20 A2989 RMK AO2 PK WND 19027/0024 WSHFT 0021 LTG DSNT SE RAB38 TSB49 SLP084 P0041 T02110200 $
KINK 210045Z AUTO 21013G23KT 1 3/4SM VCTS +RA BR SCT025 BKN036 OVC080 22/20 A2988 RMK AO2 PK WND 19027/0024 WSHFT 0021 LTG DSNT SE AND S RAB38 P0028 T02170200 $
KINK 210041Z AUTO 21017KT 3SM VCTS +RA BR FEW028 BKN049 OVC100 22/20 A2987 RMK AO2 PK WND 19027/0024 WSHFT 0021 LTG DSNT SE AND S RAB38 P0013 T02170200 $
KINK 210032Z AUTO 20020G27KT 10SM VCTS SCT036 BKN080 OVC110 23/19 A2987 RMK AO2 PK WND 19027/0024 T02330189
KINK 202253Z AUTO 17014KT 10SM FEW047 28/17 A2983 RMK AO2 SLP058 T02780172
KINK 202153Z AUTO 17012G18KT 10SM FEW044 SCT100 29/18 A2982 RMK AO2 SLP055 T02890178
KINK 202053Z AUTO 18013KT 10SM BKN044 BKN055 OVC100 27/18 A2984 RMK AO2 SLP062 T02720183 58025
KINK 201953Z AUTO 16014G19KT 10SM SCT075 OVC085 27/18 A2987 RMK AO2 SLP073 T02720178
KINK 201853Z AUTO 16011KT 10SM BKN070 27/18 A2990 RMK AO2 SLP082 T02670178
KINK 201753Z AUTO 16015G21KT 10SM BKN070 26/18 A2992 RMK AO2 SLP091 60000 T02560183 10256 20194 58002
KINK 201653Z AUTO 14011KT 10SM OVC065 23/19 A2994 RMK AO2 RAB1556E05B26E42 SLP098 P0000 T02330189
KINK 201553Z AUTO 16014KT 10SM BKN060 OVC075 23/18 A2995 RMK AO2 SLP100 T02330183
KINK 201453Z AUTO 15016G23KT 10SM BKN060 BKN090 23/18 A2993 RMK AO2 SLP094 T02280178 51008
KINK 201353Z AUTO 14014KT 10SM CLR 21/19 A2992 RMK AO2 SLP095 T02110189
KINK 201253Z AUTO 13009KT 10SM CLR 19/18 A2991 RMK AO2 SLP093 T01940183 $
KINK 201153Z AUTO 15009KT 10SM CLR 20/17 A2990 RMK AO2 SLP082 70010 T02000172 10217 20194 55000 $
KINK 201053Z AUTO 15008KT 10SM CLR 20/17 A2990 RMK AO2 SLP078 T02000172 $
KINK 200953Z AUTO 15009KT 10SM CLR 21/17 A2989 RMK AO2 SLP075 T02060167 $
KINK 200853Z AUTO 16011KT 10SM CLR 21/16 A2990 RMK AO2 SLP078 T02110161 58003 $
KINK 200753Z AUTO 15009KT 10SM FEW120 21/16 A2992 RMK AO2 SLP085 T02060156 $
KINK 200653Z AUTO 14009KT 10SM CLR 21/16 A2991 RMK AO2 SLP083 T02060156 $
KINK 200553Z AUTO 15013KT 10SM CLR 22/16 A2991 RMK AO2 SLP084 60010 T02170156 10294 20211 403220206 58002 $